sensor_id;sensor_type;location;lat;lon;timestamp;temperature;humidity
23803;DHT22;12082;51.786;6.018;2023-06-14T00:01:38;14.50;99.90
23803;DHT22;12082;51.786;6.018;2023-06-14T00:04:03;14.60;99.90
23803;DHT22;12082;51.786;6.018;2023-06-14T00:06:31;14.50;99.90
23803;DHT22;12082;51.786;6.018;2023-06-14T00:08:56;14.50;99.90
23803;DHT22;12082;51.786;6.018;2023-06-14T00:11:22;14.40;99.90
23803;DHT22;12082;51.786;6.018;2023-06-14T00:13:48;14.40;99.90
23803;DHT22;12082;51.786;6.018;2023-06-14T00:16:13;14.40;99.90
23803;DHT22;12082;51.786;6.018;2023-06-14T00:18:39;14.30;99.90
23803;DHT22;12082;51.786;6.018;2023-06-14T00:21:05;14.30;99.90
23803;DHT22;12082;51.786;6.018;2023-06-14T00:23:30;14.30;99.90
23803;DHT22;12082;51.786;6.018;2023-06-14T00:25:56;14.30;99.90
23803;DHT22;12082;51.786;6.018;2023-06-14T00:28:22;14.30;99.90
23803;DHT22;12082;51.786;6.018;2023-06-14T00:30:47;14.20;99.90
23803;DHT22;12082;51.786;6.018;2023-06-14T00:33:13;14.20;99.90
23803;DHT22;12082;51.786;6.018;2023-06-14T00:35:38;14.20;99.90
23803;DHT22;12082;51.786;6.018;2023-06-14T00:38:04;14.10;99.90
23803;DHT22;12082;51.786;6.018;2023-06-14T00:40:30;14.00;99.90
23803;DHT22;12082;51.786;6.018;2023-06-14T00:42:55;13.90;99.90
23803;DHT22;12082;51.786;6.018;2023-06-14T00:45:21;13.80;99.90
23803;DHT22;12082;51.786;6.018;2023-06-14T00:47:47;13.70;99.90
23803;DHT22;12082;51.786;6.018;2023-06-14T00:50:16;13.60;99.90
23803;DHT22;12082;51.786;6.018;2023-06-14T00:52:42;13.60;99.90
23803;DHT22;12082;51.786;6.018;2023-06-14T00:55:08;13.50;99.90
23803;DHT22;12082;51.786;6.018;2023-06-14T00:57:34;13.40;99.90
23803;DHT22;12082;51.786;6.018;2023-06-14T01:00:03;13.30;99.90
23803;DHT22;12082;51.786;6.018;2023-06-14T01:02:33;13.30;99.90
23803;DHT22;12082;51.786;6.018;2023-06-14T01:04:59;13.20;99.90
23803;DHT22;12082;51.786;6.018;2023-06-14T01:10:09;13.00;99.90
23803;DHT22;12082;51.786;6.018;2023-06-14T01:15:44;13.00;99.90
23803;DHT22;12082;51.786;6.018;2023-06-14T01:18:09;13.00;99.90
23803;DHT22;12082;51.786;6.018;2023-06-14T01:20:44;13.00;99.90
23803;DHT22;12082;51.786;6.018;2023-06-14T01:23:19;12.90;99.90
23803;DHT22;12082;51.786;6.018;2023-06-14T01:25:46;12.90;99.90
23803;DHT22;12082;51.786;6.018;2023-06-14T01:28:13;12.90;99.90
23803;DHT22;12082;51.786;6.018;2023-06-14T01:30:43;12.40;99.90
23803;DHT22;12082;51.786;6.018;2023-06-14T01:33:17;12.80;99.90
23803;DHT22;12082;51.786;6.018;2023-06-14T01:35:47;12.80;99.90
23803;DHT22;12082;51.786;6.018;2023-06-14T01:38:14;12.80;99.90
23803;DHT22;12082;51.786;6.018;2023-06-14T01:40:41;12.70;99.90
23803;DHT22;12082;51.786;6.018;2023-06-14T01:43:08;12.70;99.90
23803;DHT22;12082;51.786;6.018;2023-06-14T01:45:35;12.70;99.90
23803;DHT22;12082;51.786;6.018;2023-06-14T01:48:02;12.70;99.90
23803;DHT22;12082;51.786;6.018;2023-06-14T01:50:31;12.60;99.90
23803;DHT22;12082;51.786;6.018;2023-06-14T01:52:57;12.60;99.90
23803;DHT22;12082;51.786;6.018;2023-06-14T01:55:23;12.60;99.90
23803;DHT22;12082;51.786;6.018;2023-06-14T01:57:50;12.50;99.90
23803;DHT22;12082;51.786;6.018;2023-06-14T02:00:17;12.50;99.90
23803;DHT22;12082;51.786;6.018;2023-06-14T02:02:43;12.50;99.90
23803;DHT22;12082;51.786;6.018;2023-06-14T02:05:09;12.50;99.90
23803;DHT22;12082;51.786;6.018;2023-06-14T02:07:36;12.50;99.90
23803;DHT22;12082;51.786;6.018;2023-06-14T02:10:02;12.40;99.90
23803;DHT22;12082;51.786;6.018;2023-06-14T02:12:28;12.40;99.90
23803;DHT22;12082;51.786;6.018;2023-06-14T02:14:53;12.40;99.90
23803;DHT22;12082;51.786;6.018;2023-06-14T02:17:19;12.40;99.90
23803;DHT22;12082;51.786;6.018;2023-06-14T02:19:45;12.40;99.90
23803;DHT22;12082;51.786;6.018;2023-06-14T02:22:11;12.30;99.90
23803;DHT22;12082;51.786;6.018;2023-06-14T02:24:37;12.30;99.90
23803;DHT22;12082;51.786;6.018;2023-06-14T02:27:02;12.20;99.90
23803;DHT22;12082;51.786;6.018;2023-06-14T02:29:28;12.20;99.90
23803;DHT22;12082;51.786;6.018;2023-06-14T02:31:54;12.20;99.90
23803;DHT22;12082;51.786;6.018;2023-06-14T02:34:19;12.20;99.90
23803;DHT22;12082;51.786;6.018;2023-06-14T02:36:47;12.10;99.90
23803;DHT22;12082;51.786;6.018;2023-06-14T02:39:13;12.10;99.90
23803;DHT22;12082;51.786;6.018;2023-06-14T02:41:39;12.10;99.90
23803;DHT22;12082;51.786;6.018;2023-06-14T02:44:05;12.00;99.90
23803;DHT22;12082;51.786;6.018;2023-06-14T02:46:31;12.00;99.90
23803;DHT22;12082;51.786;6.018;2023-06-14T02:48:57;12.00;99.90
23803;DHT22;12082;51.786;6.018;2023-06-14T02:51:22;11.90;99.90
23803;DHT22;12082;51.786;6.018;2023-06-14T02:53:48;11.90;99.90
23803;DHT22;12082;51.786;6.018;2023-06-14T02:56:13;11.80;99.90
23803;DHT22;12082;51.786;6.018;2023-06-14T02:58:39;11.80;99.90
23803;DHT22;12082;51.786;6.018;2023-06-14T03:01:05;11.80;99.90
23803;DHT22;12082;51.786;6.018;2023-06-14T03:03:33;11.70;99.90
23803;DHT22;12082;51.786;6.018;2023-06-14T03:05:59;11.70;99.90
23803;DHT22;12082;51.786;6.018;2023-06-14T03:08:29;11.70;99.90
23803;DHT22;12082;51.786;6.018;2023-06-14T03:10:55;11.70;99.90
23803;DHT22;12082;51.786;6.018;2023-06-14T03:13:21;11.70;99.90
23803;DHT22;12082;51.786;6.018;2023-06-14T03:15:47;11.60;99.90
23803;DHT22;12082;51.786;6.018;2023-06-14T03:18:16;11.70;99.90
23803;DHT22;12082;51.786;6.018;2023-06-14T03:20:41;11.70;99.90
23803;DHT22;12082;51.786;6.018;2023-06-14T03:23:08;11.60;99.90
23803;DHT22;12082;51.786;6.018;2023-06-14T03:25:34;11.70;99.90
23803;DHT22;12082;51.786;6.018;2023-06-14T03:28:04;11.60;99.90
23803;DHT22;12082;51.786;6.018;2023-06-14T03:30:31;11.60;99.90
23803;DHT22;12082;51.786;6.018;2023-06-14T03:32:57;11.60;99.90
23803;DHT22;12082;51.786;6.018;2023-06-14T03:35:23;11.60;99.90
23803;DHT22;12082;51.786;6.018;2023-06-14T03:37:49;11.60;99.90
23803;DHT22;12082;51.786;6.018;2023-06-14T03:40:16;11.60;99.90
23803;DHT22;12082;51.786;6.018;2023-06-14T03:42:42;11.60;99.90
23803;DHT22;12082;51.786;6.018;2023-06-14T03:45:07;11.60;99.90
23803;DHT22;12082;51.786;6.018;2023-06-14T03:47:34;11.70;99.90
23803;DHT22;12082;51.786;6.018;2023-06-14T03:50:00;11.60;99.90
23803;DHT22;12082;51.786;6.018;2023-06-14T03:52:26;11.60;99.90
23803;DHT22;12082;51.786;6.018;2023-06-14T03:54:52;11.70;99.90
23803;DHT22;12082;51.786;6.018;2023-06-14T03:57:18;11.70;99.90
23803;DHT22;12082;51.786;6.018;2023-06-14T03:59:44;11.80;99.90
23803;DHT22;12082;51.786;6.018;2023-06-14T04:02:09;11.80;99.90
23803;DHT22;12082;51.786;6.018;2023-06-14T04:04:35;11.80;99.90
23803;DHT22;12082;51.786;6.018;2023-06-14T04:07:02;11.80;99.90
23803;DHT22;12082;51.786;6.018;2023-06-14T04:09:29;11.80;99.90
23803;DHT22;12082;51.786;6.018;2023-06-14T04:11:54;11.80;99.90
23803;DHT22;12082;51.786;6.018;2023-06-14T04:14:21;11.80;99.90
23803;DHT22;12082;51.786;6.018;2023-06-14T04:16:47;11.80;99.90
23803;DHT22;12082;51.786;6.018;2023-06-14T04:19:14;11.80;99.90
23803;DHT22;12082;51.786;6.018;2023-06-14T04:21:40;11.80;99.90
23803;DHT22;12082;51.786;6.018;2023-06-14T04:24:05;11.90;99.90
23803;DHT22;12082;51.786;6.018;2023-06-14T04:26:32;11.90;99.90
23803;DHT22;12082;51.786;6.018;2023-06-14T04:28:59;11.90;99.90
23803;DHT22;12082;51.786;6.018;2023-06-14T04:31:29;12.00;99.90
23803;DHT22;12082;51.786;6.018;2023-06-14T04:33:57;12.10;99.90
23803;DHT22;12082;51.786;6.018;2023-06-14T04:36:24;12.20;99.90
23803;DHT22;12082;51.786;6.018;2023-06-14T04:38:52;12.20;99.90
23803;DHT22;12082;51.786;6.018;2023-06-14T04:41:22;12.30;99.90
23803;DHT22;12082;51.786;6.018;2023-06-14T04:43:49;12.40;99.90
23803;DHT22;12082;51.786;6.018;2023-06-14T04:46:15;12.50;99.90
23803;DHT22;12082;51.786;6.018;2023-06-14T04:48:42;13.20;99.90
23803;DHT22;12082;51.786;6.018;2023-06-14T04:51:11;12.60;99.90
23803;DHT22;12082;51.786;6.018;2023-06-14T04:53:36;12.70;99.90
23803;DHT22;12082;51.786;6.018;2023-06-14T04:56:02;12.80;99.90
23803;DHT22;12082;51.786;6.018;2023-06-14T04:58:28;12.90;99.90
23803;DHT22;12082;51.786;6.018;2023-06-14T05:00:55;13.00;99.90
23803;DHT22;12082;51.786;6.018;2023-06-14T05:03:22;13.10;99.90
23803;DHT22;12082;51.786;6.018;2023-06-14T05:05:48;13.20;99.90
23803;DHT22;12082;51.786;6.018;2023-06-14T05:08:13;13.30;99.90
23803;DHT22;12082;51.786;6.018;2023-06-14T05:10:39;13.40;99.90
23803;DHT22;12082;51.786;6.018;2023-06-14T05:13:05;13.50;99.90
23803;DHT22;12082;51.786;6.018;2023-06-14T05:15:30;13.60;99.90
23803;DHT22;12082;51.786;6.018;2023-06-14T05:17:56;13.60;99.90
23803;DHT22;12082;51.786;6.018;2023-06-14T05:20:22;13.80;99.90
23803;DHT22;12082;51.786;6.018;2023-06-14T05:22:51;13.90;99.90
23803;DHT22;12082;51.786;6.018;2023-06-14T05:25:17;14.00;99.90
23803;DHT22;12082;51.786;6.018;2023-06-14T05:27:43;14.10;99.90
23803;DHT22;12082;51.786;6.018;2023-06-14T05:30:09;14.40;99.90
23803;DHT22;12082;51.786;6.018;2023-06-14T05:32:35;14.60;99.90
23803;DHT22;12082;51.786;6.018;2023-06-14T05:35:00;14.80;99.90
23803;DHT22;12082;51.786;6.018;2023-06-14T05:37:26;15.10;99.90
23803;DHT22;12082;51.786;6.018;2023-06-14T05:39:51;15.70;99.90
23803;DHT22;12082;51.786;6.018;2023-06-14T05:42:17;16.70;99.90
23803;DHT22;12082;51.786;6.018;2023-06-14T05:44:42;17.90;99.90
23803;DHT22;12082;51.786;6.018;2023-06-14T05:47:08;18.90;99.90
23803;DHT22;12082;51.786;6.018;2023-06-14T05:49:33;19.60;99.90
23803;DHT22;12082;51.786;6.018;2023-06-14T05:51:59;20.30;99.90
23803;DHT22;12082;51.786;6.018;2023-06-14T05:54:24;20.90;99.90
23803;DHT22;12082;51.786;6.018;2023-06-14T05:56:50;21.40;99.90
23803;DHT22;12082;51.786;6.018;2023-06-14T05:59:16;21.90;99.90
23803;DHT22;12082;51.786;6.018;2023-06-14T06:01:41;22.20;99.90
23803;DHT22;12082;51.786;6.018;2023-06-14T06:04:07;22.60;98.40
23803;DHT22;12082;51.786;6.018;2023-06-14T06:06:33;22.60;99.00
23803;DHT22;12082;51.786;6.018;2023-06-14T06:08:58;22.60;98.80
23803;DHT22;12082;51.786;6.018;2023-06-14T06:11:24;22.90;98.30
23803;DHT22;12082;51.786;6.018;2023-06-14T06:13:49;23.00;98.40
23803;DHT22;12082;51.786;6.018;2023-06-14T06:16:15;22.90;97.20
23803;DHT22;12082;51.786;6.018;2023-06-14T06:18:41;23.30;96.50
23803;DHT22;12082;51.786;6.018;2023-06-14T06:21:07;23.50;97.30
23803;DHT22;12082;51.786;6.018;2023-06-14T06:23:32;23.50;95.80
23803;DHT22;12082;51.786;6.018;2023-06-14T06:25:58;23.70;96.10
23803;DHT22;12082;51.786;6.018;2023-06-14T06:28:23;24.30;96.30
23803;DHT22;12082;51.786;6.018;2023-06-14T06:30:49;24.20;95.80
23803;DHT22;12082;51.786;6.018;2023-06-14T06:33:15;24.30;94.80
23803;DHT22;12082;51.786;6.018;2023-06-14T06:35:41;24.50;94.40
23803;DHT22;12082;51.786;6.018;2023-06-14T06:38:07;24.70;94.80
23803;DHT22;12082;51.786;6.018;2023-06-14T06:40:35;25.10;94.30
23803;DHT22;12082;51.786;6.018;2023-06-14T06:43:02;24.90;95.50
23803;DHT22;12082;51.786;6.018;2023-06-14T06:45:28;24.60;94.70
23803;DHT22;12082;51.786;6.018;2023-06-14T06:47:54;24.90;93.90
23803;DHT22;12082;51.786;6.018;2023-06-14T06:50:21;24.70;93.30
23803;DHT22;12082;51.786;6.018;2023-06-14T06:52:48;24.90;94.40
23803;DHT22;12082;51.786;6.018;2023-06-14T06:55:14;24.20;93.10
23803;DHT22;12082;51.786;6.018;2023-06-14T06:57:40;24.10;94.00
23803;DHT22;12082;51.786;6.018;2023-06-14T07:00:06;24.30;92.80
23803;DHT22;12082;51.786;6.018;2023-06-14T07:02:34;24.30;92.90
23803;DHT22;12082;51.786;6.018;2023-06-14T07:04:59;23.90;94.00
23803;DHT22;12082;51.786;6.018;2023-06-14T07:07:25;24.40;93.10
23803;DHT22;12082;51.786;6.018;2023-06-14T07:09:51;24.50;92.70
23803;DHT22;12082;51.786;6.018;2023-06-14T07:12:16;24.70;93.60
23803;DHT22;12082;51.786;6.018;2023-06-14T07:14:42;24.70;92.20
23803;DHT22;12082;51.786;6.018;2023-06-14T07:17:07;24.90;93.20
23803;DHT22;12082;51.786;6.018;2023-06-14T07:19:33;25.20;92.50
23803;DHT22;12082;51.786;6.018;2023-06-14T07:21:58;25.40;90.90
23803;DHT22;12082;51.786;6.018;2023-06-14T07:24:24;25.40;90.60
23803;DHT22;12082;51.786;6.018;2023-06-14T07:26:50;25.40;89.50
23803;DHT22;12082;51.786;6.018;2023-06-14T07:29:15;24.90;90.30
23803;DHT22;12082;51.786;6.018;2023-06-14T07:31:42;24.60;90.50
23803;DHT22;12082;51.786;6.018;2023-06-14T07:34:07;24.30;90.10
23803;DHT22;12082;51.786;6.018;2023-06-14T07:36:34;24.30;91.10
23803;DHT22;12082;51.786;6.018;2023-06-14T07:38:59;24.20;90.10
23803;DHT22;12082;51.786;6.018;2023-06-14T07:41:27;24.40;90.50
23803;DHT22;12082;51.786;6.018;2023-06-14T07:43:53;24.80;90.90
23803;DHT22;12082;51.786;6.018;2023-06-14T07:46:18;25.40;90.00
23803;DHT22;12082;51.786;6.018;2023-06-14T07:48:44;25.70;92.40
23803;DHT22;12082;51.786;6.018;2023-06-14T07:51:10;25.40;91.30
23803;DHT22;12082;51.786;6.018;2023-06-14T07:53:35;25.70;87.90
23803;DHT22;12082;51.786;6.018;2023-06-14T07:56:01;25.90;88.50
23803;DHT22;12082;51.786;6.018;2023-06-14T07:58:28;26.10;89.50
23803;DHT22;12082;51.786;6.018;2023-06-14T08:00:53;25.60;89.30
23803;DHT22;12082;51.786;6.018;2023-06-14T08:03:19;25.70;89.10
23803;DHT22;12082;51.786;6.018;2023-06-14T08:05:45;25.80;88.10
23803;DHT22;12082;51.786;6.018;2023-06-14T08:08:10;26.20;86.30
23803;DHT22;12082;51.786;6.018;2023-06-14T08:10:36;26.00;89.80
23803;DHT22;12082;51.786;6.018;2023-06-14T08:13:01;26.00;85.00
23803;DHT22;12082;51.786;6.018;2023-06-14T08:15:27;25.80;87.30
23803;DHT22;12082;51.786;6.018;2023-06-14T08:17:52;25.60;86.20
23803;DHT22;12082;51.786;6.018;2023-06-14T08:20:18;25.90;85.40
23803;DHT22;12082;51.786;6.018;2023-06-14T08:22:44;26.10;84.90
23803;DHT22;12082;51.786;6.018;2023-06-14T08:25:11;26.40;85.40
23803;DHT22;12082;51.786;6.018;2023-06-14T08:27:37;26.50;84.70
23803;DHT22;12082;51.786;6.018;2023-06-14T08:30:03;26.10;86.60
23803;DHT22;12082;51.786;6.018;2023-06-14T08:32:29;26.10;85.30
23803;DHT22;12082;51.786;6.018;2023-06-14T08:34:54;26.50;86.90
23803;DHT22;12082;51.786;6.018;2023-06-14T08:37:20;26.30;86.50
23803;DHT22;12082;51.786;6.018;2023-06-14T08:39:46;26.30;87.10
23803;DHT22;12082;51.786;6.018;2023-06-14T08:42:12;26.30;86.70
23803;DHT22;12082;51.786;6.018;2023-06-14T08:44:39;26.20;87.30
23803;DHT22;12082;51.786;6.018;2023-06-14T08:47:06;26.70;87.60
23803;DHT22;12082;51.786;6.018;2023-06-14T08:49:32;27.10;83.40
23803;DHT22;12082;51.786;6.018;2023-06-14T08:52:00;27.10;84.70
23803;DHT22;12082;51.786;6.018;2023-06-14T08:54:27;26.70;81.40
23803;DHT22;12082;51.786;6.018;2023-06-14T08:56:55;26.60;83.20
23803;DHT22;12082;51.786;6.018;2023-06-14T08:59:26;26.20;81.80
23803;DHT22;12082;51.786;6.018;2023-06-14T09:01:53;26.30;79.50
23803;DHT22;12082;51.786;6.018;2023-06-14T09:04:20;26.70;79.60
23803;DHT22;12082;51.786;6.018;2023-06-14T09:06:47;26.90;81.50
23803;DHT22;12082;51.786;6.018;2023-06-14T09:09:21;27.00;82.60
23803;DHT22;12082;51.786;6.018;2023-06-14T09:11:49;26.80;86.10
23803;DHT22;12082;51.786;6.018;2023-06-14T09:14:15;27.20;82.60
23803;DHT22;12082;51.786;6.018;2023-06-14T09:16:41;27.00;83.90
23803;DHT22;12082;51.786;6.018;2023-06-14T09:19:06;26.80;84.00
23803;DHT22;12082;51.786;6.018;2023-06-14T09:21:34;27.30;80.30
23803;DHT22;12082;51.786;6.018;2023-06-14T09:24:01;27.20;84.00
23803;DHT22;12082;51.786;6.018;2023-06-14T09:26:28;27.20;81.40
23803;DHT22;12082;51.786;6.018;2023-06-14T09:28:53;27.20;81.50
23803;DHT22;12082;51.786;6.018;2023-06-14T09:31:21;26.90;77.50
23803;DHT22;12082;51.786;6.018;2023-06-14T09:33:50;26.50;81.20
23803;DHT22;12082;51.786;6.018;2023-06-14T09:36:25;26.60;83.20
23803;DHT22;12082;51.786;6.018;2023-06-14T09:38:59;26.80;79.20
23803;DHT22;12082;51.786;6.018;2023-06-14T09:44:01;27.20;81.60
23803;DHT22;12082;51.786;6.018;2023-06-14T09:46:28;26.90;80.40
23803;DHT22;12082;51.786;6.018;2023-06-14T09:48:55;26.60;82.00
23803;DHT22;12082;51.786;6.018;2023-06-14T09:51:22;26.20;81.40
23803;DHT22;12082;51.786;6.018;2023-06-14T09:53:49;25.90;83.60
23803;DHT22;12082;51.786;6.018;2023-06-14T09:56:39;25.80;87.00
23803;DHT22;12082;51.786;6.018;2023-06-14T09:59:06;25.80;86.30
23803;DHT22;12082;51.786;6.018;2023-06-14T10:01:35;25.80;87.30
23803;DHT22;12082;51.786;6.018;2023-06-14T10:04:04;25.80;87.10
23803;DHT22;12082;51.786;6.018;2023-06-14T10:06:31;25.70;85.30
23803;DHT22;12082;51.786;6.018;2023-06-14T10:08:58;25.50;85.50
23803;DHT22;12082;51.786;6.018;2023-06-14T10:11:27;25.60;89.30
23803;DHT22;12082;51.786;6.018;2023-06-14T10:13:57;25.40;84.70
23803;DHT22;12082;51.786;6.018;2023-06-14T10:16:56;25.30;86.30
23803;DHT22;12082;51.786;6.018;2023-06-14T10:19:32;25.50;90.70
23803;DHT22;12082;51.786;6.018;2023-06-14T10:22:18;25.50;87.00
23803;DHT22;12082;51.786;6.018;2023-06-14T10:24:45;25.30;86.90
23803;DHT22;12082;51.786;6.018;2023-06-14T10:27:14;25.30;88.80
23803;DHT22;12082;51.786;6.018;2023-06-14T10:32:24;25.20;86.80
23803;DHT22;12082;51.786;6.018;2023-06-14T10:35:01;25.30;89.10
23803;DHT22;12082;51.786;6.018;2023-06-14T10:37:27;25.30;89.60
23803;DHT22;12082;51.786;6.018;2023-06-14T10:39:52;25.40;88.10
23803;DHT22;12082;51.786;6.018;2023-06-14T10:42:19;25.30;88.70
23803;DHT22;12082;51.786;6.018;2023-06-14T10:44:55;25.10;87.20
23803;DHT22;12082;51.786;6.018;2023-06-14T10:47:26;25.00;88.10
23803;DHT22;12082;51.786;6.018;2023-06-14T10:49:53;24.90;89.70
23803;DHT22;12082;51.786;6.018;2023-06-14T10:52:27;24.90;88.40
23803;DHT22;12082;51.786;6.018;2023-06-14T10:57:22;24.60;87.90
23803;DHT22;12082;51.786;6.018;2023-06-14T10:59:47;24.50;86.90
23803;DHT22;12082;51.786;6.018;2023-06-14T11:04:51;24.50;89.40
23803;DHT22;12082;51.786;6.018;2023-06-14T11:10:35;24.60;87.00
23803;DHT22;12082;51.786;6.018;2023-06-14T11:13:02;24.60;86.00
23803;DHT22;12082;51.786;6.018;2023-06-14T11:15:32;24.50;86.00
23803;DHT22;12082;51.786;6.018;2023-06-14T11:18:00;24.40;86.60
23803;DHT22;12082;51.786;6.018;2023-06-14T11:20:27;24.30;86.10
23803;DHT22;12082;51.786;6.018;2023-06-14T11:22:53;24.50;88.70
23803;DHT22;12082;51.786;6.018;2023-06-14T11:25:20;24.30;86.70
23803;DHT22;12082;51.786;6.018;2023-06-14T11:27:45;24.30;84.40
23803;DHT22;12082;51.786;6.018;2023-06-14T11:30:12;24.20;89.00
23803;DHT22;12082;51.786;6.018;2023-06-14T11:32:39;24.20;86.20
23803;DHT22;12082;51.786;6.018;2023-06-14T11:35:05;24.20;87.30
23803;DHT22;12082;51.786;6.018;2023-06-14T11:37:32;24.20;85.80
23803;DHT22;12082;51.786;6.018;2023-06-14T11:40:03;24.30;87.60
23803;DHT22;12082;51.786;6.018;2023-06-14T11:42:33;24.40;88.30
23803;DHT22;12082;51.786;6.018;2023-06-14T11:44:59;24.50;84.80
23803;DHT22;12082;51.786;6.018;2023-06-14T11:47:30;24.40;85.50
23803;DHT22;12082;51.786;6.018;2023-06-14T11:49:58;24.20;87.50
23803;DHT22;12082;51.786;6.018;2023-06-14T11:52:24;24.20;86.90
23803;DHT22;12082;51.786;6.018;2023-06-14T11:54:49;24.20;88.20
23803;DHT22;12082;51.786;6.018;2023-06-14T11:57:17;24.30;87.80
23803;DHT22;12082;51.786;6.018;2023-06-14T11:59:44;24.30;86.80
23803;DHT22;12082;51.786;6.018;2023-06-14T12:02:14;24.40;90.00
23803;DHT22;12082;51.786;6.018;2023-06-14T12:04:43;24.60;84.90
23803;DHT22;12082;51.786;6.018;2023-06-14T12:07:13;24.70;85.20
23803;DHT22;12082;51.786;6.018;2023-06-14T12:12:24;24.40;85.50
23803;DHT22;12082;51.786;6.018;2023-06-14T12:14:55;24.30;86.10
23803;DHT22;12082;51.786;6.018;2023-06-14T12:17:21;24.50;86.50
23803;DHT22;12082;51.786;6.018;2023-06-14T12:19:49;24.60;89.60
23803;DHT22;12082;51.786;6.018;2023-06-14T12:22:16;24.90;84.80
23803;DHT22;12082;51.786;6.018;2023-06-14T12:24:46;24.90;85.90
23803;DHT22;12082;51.786;6.018;2023-06-14T12:27:12;24.70;86.40
23803;DHT22;12082;51.786;6.018;2023-06-14T12:29:41;24.90;90.00
23803;DHT22;12082;51.786;6.018;2023-06-14T12:32:09;24.90;88.20
23803;DHT22;12082;51.786;6.018;2023-06-14T12:34:34;24.90;87.20
23803;DHT22;12082;51.786;6.018;2023-06-14T12:37:01;25.10;87.80
23803;DHT22;12082;51.786;6.018;2023-06-14T12:39:26;25.10;87.30
23803;DHT22;12082;51.786;6.018;2023-06-14T12:41:53;24.90;84.20
23803;DHT22;12082;51.786;6.018;2023-06-14T12:44:19;24.90;87.00
23803;DHT22;12082;51.786;6.018;2023-06-14T12:46:46;25.30;87.70
23803;DHT22;12082;51.786;6.018;2023-06-14T12:49:12;25.40;85.50
23803;DHT22;12082;51.786;6.018;2023-06-14T12:51:39;25.30;86.10
23803;DHT22;12082;51.786;6.018;2023-06-14T12:54:05;25.10;84.70
23803;DHT22;12082;51.786;6.018;2023-06-14T12:56:31;25.20;87.40
23803;DHT22;12082;51.786;6.018;2023-06-14T12:58:57;25.20;84.60
23803;DHT22;12082;51.786;6.018;2023-06-14T13:01:23;25.30;87.70
23803;DHT22;12082;51.786;6.018;2023-06-14T13:03:49;25.20;86.20
23803;DHT22;12082;51.786;6.018;2023-06-14T13:06:17;25.20;82.70
23803;DHT22;12082;51.786;6.018;2023-06-14T13:08:42;25.10;87.10
23803;DHT22;12082;51.786;6.018;2023-06-14T13:11:08;25.30;86.30
23803;DHT22;12082;51.786;6.018;2023-06-14T13:13:34;25.40;85.00
23803;DHT22;12082;51.786;6.018;2023-06-14T13:15:59;25.30;85.10
23803;DHT22;12082;51.786;6.018;2023-06-14T13:18:26;25.40;86.10
23803;DHT22;12082;51.786;6.018;2023-06-14T13:20:51;25.60;87.60
23803;DHT22;12082;51.786;6.018;2023-06-14T13:23:17;25.70;89.20
23803;DHT22;12082;51.786;6.018;2023-06-14T13:25:43;25.60;85.90
23803;DHT22;12082;51.786;6.018;2023-06-14T13:28:08;25.80;89.60
23803;DHT22;12082;51.786;6.018;2023-06-14T13:30:34;26.00;87.10
23803;DHT22;12082;51.786;6.018;2023-06-14T13:33:00;26.10;83.90
23803;DHT22;12082;51.786;6.018;2023-06-14T13:35:26;26.10;82.40
23803;DHT22;12082;51.786;6.018;2023-06-14T13:37:52;26.00;84.10
23803;DHT22;12082;51.786;6.018;2023-06-14T13:40:18;26.10;86.70
23803;DHT22;12082;51.786;6.018;2023-06-14T13:42:45;26.10;82.40
23803;DHT22;12082;51.786;6.018;2023-06-14T13:45:12;26.10;85.70
23803;DHT22;12082;51.786;6.018;2023-06-14T13:47:38;26.40;84.60
23803;DHT22;12082;51.786;6.018;2023-06-14T13:50:05;26.50;83.40
23803;DHT22;12082;51.786;6.018;2023-06-14T13:52:30;26.40;83.50
23803;DHT22;12082;51.786;6.018;2023-06-14T13:54:56;26.40;83.50
23803;DHT22;12082;51.786;6.018;2023-06-14T13:57:22;26.60;85.30
23803;DHT22;12082;51.786;6.018;2023-06-14T13:59:48;26.90;80.90
23803;DHT22;12082;51.786;6.018;2023-06-14T14:02:14;26.70;83.70
23803;DHT22;12082;51.786;6.018;2023-06-14T14:04:40;27.00;83.50
23803;DHT22;12082;51.786;6.018;2023-06-14T14:07:07;26.90;81.40
23803;DHT22;12082;51.786;6.018;2023-06-14T14:09:33;26.70;79.10
23803;DHT22;12082;51.786;6.018;2023-06-14T14:12:03;26.60;81.40
23803;DHT22;12082;51.786;6.018;2023-06-14T14:14:30;26.50;82.50
23803;DHT22;12082;51.786;6.018;2023-06-14T14:16:55;26.40;83.10
23803;DHT22;12082;51.786;6.018;2023-06-14T14:19:21;26.50;83.00
23803;DHT22;12082;51.786;6.018;2023-06-14T14:21:47;26.50;82.40
23803;DHT22;12082;51.786;6.018;2023-06-14T14:24:13;26.50;82.70
23803;DHT22;12082;51.786;6.018;2023-06-14T14:26:39;26.50;81.10
23803;DHT22;12082;51.786;6.018;2023-06-14T14:29:05;26.60;84.00
23803;DHT22;12082;51.786;6.018;2023-06-14T14:31:30;26.70;85.10
23803;DHT22;12082;51.786;6.018;2023-06-14T14:33:56;26.60;80.20
23803;DHT22;12082;51.786;6.018;2023-06-14T14:36:22;26.30;81.80
23803;DHT22;12082;51.786;6.018;2023-06-14T14:38:47;26.10;82.00
23803;DHT22;12082;51.786;6.018;2023-06-14T14:41:13;26.20;85.30
23803;DHT22;12082;51.786;6.018;2023-06-14T14:43:39;26.20;85.70
23803;DHT22;12082;51.786;6.018;2023-06-14T14:46:05;26.10;81.10
23803;DHT22;12082;51.786;6.018;2023-06-14T14:48:31;26.10;84.50
23803;DHT22;12082;51.786;6.018;2023-06-14T14:50:57;26.20;83.20
23803;DHT22;12082;51.786;6.018;2023-06-14T14:53:22;26.30;83.20
23803;DHT22;12082;51.786;6.018;2023-06-14T14:55:49;26.30;81.80
23803;DHT22;12082;51.786;6.018;2023-06-14T14:58:14;26.40;83.70
23803;DHT22;12082;51.786;6.018;2023-06-14T15:00:44;26.40;83.80
23803;DHT22;12082;51.786;6.018;2023-06-14T15:03:09;26.60;83.00
23803;DHT22;12082;51.786;6.018;2023-06-14T15:05:35;26.50;82.60
23803;DHT22;12082;51.786;6.018;2023-06-14T15:08:02;26.60;83.50
23803;DHT22;12082;51.786;6.018;2023-06-14T15:10:28;26.50;82.30
23803;DHT22;12082;51.786;6.018;2023-06-14T15:12:53;26.50;84.20
23803;DHT22;12082;51.786;6.018;2023-06-14T15:15:19;26.50;84.40
23803;DHT22;12082;51.786;6.018;2023-06-14T15:17:45;26.60;84.00
23803;DHT22;12082;51.786;6.018;2023-06-14T15:20:11;26.70;83.60
23803;DHT22;12082;51.786;6.018;2023-06-14T15:22:38;26.70;85.10
23803;DHT22;12082;51.786;6.018;2023-06-14T15:25:04;26.60;83.90
23803;DHT22;12082;51.786;6.018;2023-06-14T15:27:29;26.60;83.60
23803;DHT22;12082;51.786;6.018;2023-06-14T15:29:55;26.60;84.80
23803;DHT22;12082;51.786;6.018;2023-06-14T15:32:20;26.70;83.90
23803;DHT22;12082;51.786;6.018;2023-06-14T15:34:47;26.70;85.90
23803;DHT22;12082;51.786;6.018;2023-06-14T15:37:13;26.60;83.80
23803;DHT22;12082;51.786;6.018;2023-06-14T15:39:38;26.50;83.50
23803;DHT22;12082;51.786;6.018;2023-06-14T15:42:04;26.20;84.00
23803;DHT22;12082;51.786;6.018;2023-06-14T15:44:31;26.10;83.40
23803;DHT22;12082;51.786;6.018;2023-06-14T15:46:56;26.20;85.80
23803;DHT22;12082;51.786;6.018;2023-06-14T15:49:22;26.30;83.70